createdAt,value
2018-01-08T00:00:07.642Z,101029.44
2018-01-08T00:02:34.064Z,101025.59
2018-01-08T00:05:00.428Z,101027.23
2018-01-08T00:07:26.835Z,101036.39
2018-01-08T00:09:53.233Z,101031.66
2018-01-08T00:12:19.652Z,101030.84
2018-01-08T00:14:46.102Z,101026.50
2018-01-08T00:17:12.495Z,101025.06
2018-01-08T00:19:38.860Z,101029.81
2018-01-08T00:22:05.303Z,101041.13
2018-01-08T00:24:31.760Z,101035.97
2018-01-08T00:26:58.199Z,101047.88
2018-01-08T00:29:24.583Z,101045.21
2018-01-08T00:31:51.032Z,101053.06
2018-01-08T00:34:17.383Z,101047.36
2018-01-08T00:36:43.884Z,101043.82
2018-01-08T00:39:10.303Z,101044.23
2018-01-08T00:41:36.678Z,101042.94
2018-01-08T00:44:03.127Z,101057.33
2018-01-08T00:46:29.587Z,101041.22
2018-01-08T00:48:56.006Z,101036.48
2018-01-08T00:51:22.495Z,101033.44
2018-01-08T00:53:48.920Z,101026.09
2018-01-08T00:56:15.263Z,101033.89
2018-01-08T00:58:41.744Z,101023.46
2018-01-08T01:01:08.259Z,101032.58
2018-01-08T01:03:34.643Z,101040.42
2018-01-08T01:06:01.132Z,101050.86
2018-01-08T01:08:27.507Z,101056.52
2018-01-08T01:10:53.966Z,101069.98
2018-01-08T01:13:20.504Z,101072.19
2018-01-08T01:15:46.884Z,101074.32
2018-01-08T01:18:13.276Z,101070.42
2018-01-08T01:20:39.674Z,101071.75
2018-01-08T01:23:06.083Z,101080.45
2018-01-08T01:25:32.488Z,101082.19
2018-01-08T01:27:58.947Z,101084.79
2018-01-08T01:30:25.359Z,101083.08
2018-01-08T01:32:51.769Z,101084.80
2018-01-08T01:35:18.228Z,101086.50
2018-01-08T01:37:44.683Z,101083.05
2018-01-08T01:40:11.036Z,101099.98
2018-01-08T01:42:37.527Z,101100.86
2018-01-08T01:45:03.955Z,101100.45
2018-01-08T01:47:30.467Z,101093.89
2018-01-08T01:49:56.883Z,101087.41
2018-01-08T01:52:23.329Z,101089.12
2018-01-08T01:54:49.794Z,101083.06
2018-01-08T01:57:16.300Z,101080.05
2018-01-08T01:59:42.636Z,101079.20
2018-01-08T02:02:09.099Z,101084.81
2018-01-08T02:04:35.516Z,101087.84
2018-01-08T02:07:01.870Z,101083.90
2018-01-08T02:09:28.316Z,101085.25
2018-01-08T02:11:54.795Z,101091.72
2018-01-08T02:14:21.428Z,101088.27
2018-01-08T02:16:47.819Z,101099.98
2018-01-08T02:19:14.235Z,101107.33
2018-01-08T02:21:40.667Z,101112.98
2018-01-08T02:24:07.019Z,101112.14
2018-01-08T02:26:33.399Z,101113.05
2018-01-08T02:28:59.779Z,101116.03
2018-01-08T02:31:26.181Z,101113.00
2018-01-08T02:33:52.596Z,101113.02
2018-01-08T02:36:19.159Z,101112.63
2018-01-08T02:38:45.589Z,101107.81
2018-01-08T02:41:12.091Z,101106.48
2018-01-08T02:43:38.429Z,101112.10
2018-01-08T02:46:04.908Z,101116.05
2018-01-08T02:48:31.331Z,101115.63
2018-01-08T02:50:57.715Z,101112.16
2018-01-08T02:53:24.133Z,101117.77
2018-01-08T02:55:50.532Z,101108.66
2018-01-08T02:58:16.977Z,101111.72
2018-01-08T03:00:43.463Z,101106.03
2018-01-08T03:03:09.844Z,101110.81
2018-01-08T03:05:36.271Z,101112.11
2018-01-08T03:08:02.772Z,101126.03
2018-01-08T03:10:29.171Z,101126.91
2018-01-08T03:12:55.551Z,101131.27
2018-01-08T03:15:21.935Z,101125.19
2018-01-08T03:17:48.408Z,101123.45
2018-01-08T03:20:14.888Z,101122.56
2018-01-08T03:22:41.332Z,101126.06
2018-01-08T03:25:07.759Z,101124.33
2018-01-08T03:27:34.135Z,101125.22
2018-01-08T03:30:00.535Z,101117.39
2018-01-08T03:32:26.980Z,101119.13
2018-01-08T03:34:53.339Z,101113.03
2018-01-08T03:37:19.712Z,101107.84
2018-01-08T03:39:46.160Z,101110.44
2018-01-08T03:42:12.548Z,101105.23
2018-01-08T03:44:38.935Z,101110.39
2018-01-08T03:47:05.527Z,101109.53
2018-01-08T03:49:31.871Z,101105.68
2018-01-08T03:51:58.255Z,101112.64
2018-01-08T03:54:24.685Z,101119.16
2018-01-08T03:56:51.201Z,101134.76
2018-01-08T03:59:17.563Z,101140.85
2018-01-08T04:01:43.995Z,101149.94
2018-01-08T04:04:10.356Z,101158.19
2018-01-08T04:06:36.698Z,101154.70
2018-01-08T04:09:03.251Z,101145.19
2018-01-08T04:11:29.643Z,101143.44
2018-01-08T04:13:56.063Z,101148.65
2018-01-08T04:16:22.436Z,101147.80
2018-01-08T04:18:48.823Z,101164.27
2018-01-08T04:21:15.197Z,101166.45
2018-01-08T04:23:41.658Z,101168.18
2018-01-08T04:26:08.067Z,101180.77
2018-01-08T04:28:34.426Z,101180.31
2018-01-08T04:31:00.875Z,101183.80
2018-01-08T04:33:27.308Z,101187.72
2018-01-08T04:35:53.680Z,101179.89
2018-01-08T04:38:20.132Z,101175.14
2018-01-08T04:40:46.512Z,101170.34
2018-01-08T04:43:12.931Z,101170.34
2018-01-08T04:45:39.350Z,101168.17
2018-01-08T04:48:05.724Z,101156.03
2018-01-08T04:50:32.095Z,101147.78
2018-01-08T04:52:58.517Z,101149.07
2018-01-08T04:55:24.888Z,101151.69
2018-01-08T04:57:51.323Z,101159.51
2018-01-08T05:00:17.726Z,101175.13
2018-01-08T05:02:44.180Z,101170.36
2018-01-08T05:05:10.563Z,101177.28
2018-01-08T05:07:36.980Z,101178.61
2018-01-08T05:10:03.427Z,101185.11
2018-01-08T05:12:29.788Z,101196.37
2018-01-08T05:14:56.267Z,101190.75
2018-01-08T05:17:22.691Z,101180.75
2018-01-08T05:19:49.039Z,101176.43
2018-01-08T05:22:15.436Z,101180.76
2018-01-08T05:24:41.832Z,101180.77
2018-01-08T05:27:08.307Z,101181.63
2018-01-08T05:29:34.750Z,101192.92
2018-01-08T05:32:01.115Z,101198.98
2018-01-08T05:34:27.548Z,101203.77
2018-01-08T05:36:53.975Z,101197.70
2018-01-08T05:39:20.497Z,101202.47
2018-01-08T05:41:46.840Z,101198.14
2018-01-08T05:44:13.316Z,101197.69
2018-01-08T05:46:39.780Z,101207.68
2018-01-08T05:49:06.166Z,101205.93
2018-01-08T05:51:32.568Z,101203.33
2018-01-08T05:53:59.004Z,101205.50
2018-01-08T05:56:25.433Z,101207.67
2018-01-08T05:58:51.924Z,101209.41
2018-01-08T06:01:18.336Z,101209.42
2018-01-08T06:03:44.771Z,101205.48
2018-01-08T06:06:11.275Z,101205.50
2018-01-08T06:08:37.672Z,101206.36
2018-01-08T06:11:04.182Z,101201.58
2018-01-08T06:13:30.564Z,101202.47
2018-01-08T06:15:56.920Z,101205.05
2018-01-08T06:18:23.311Z,101205.89
2018-01-08T06:20:49.746Z,101201.12
2018-01-08T06:23:16.328Z,101206.34
2018-01-08T06:25:42.752Z,101207.20
2018-01-08T06:28:09.191Z,101214.62
2018-01-08T06:30:35.628Z,101219.81
2018-01-08T06:33:02.008Z,101225.44
2018-01-08T06:35:28.448Z,101230.64
2018-01-08T06:37:54.867Z,101225.88
2018-01-08T06:40:21.300Z,101224.16
2018-01-08T06:42:47.842Z,101215.05
2018-01-08T06:45:14.300Z,101207.23
2018-01-08T06:47:40.755Z,101205.94
2018-01-08T06:50:07.424Z,101207.23
2018-01-08T06:52:33.948Z,101216.79
2018-01-08T06:55:00.341Z,101220.23
2018-01-08T06:57:26.748Z,101217.64
2018-01-08T06:59:53.469Z,101206.78
2018-01-08T07:02:19.935Z,101210.69
2018-01-08T07:04:46.304Z,101212.00
2018-01-08T07:07:12.660Z,101211.98
2018-01-08T07:09:39.037Z,101211.55
2018-01-08T07:12:05.452Z,101216.75
2018-01-08T07:14:31.827Z,101211.08
2018-01-08T07:16:58.285Z,101208.44
2018-01-08T07:19:24.720Z,101207.58
2018-01-08T07:21:51.131Z,101205.38
2018-01-08T07:24:17.977Z,101200.61
2018-01-08T07:26:44.623Z,101191.91
2018-01-08T07:29:10.999Z,101196.65
2018-01-08T07:31:37.425Z,101204.43
2018-01-08T07:34:03.967Z,101217.47
2018-01-08T07:36:30.397Z,101219.64
2018-01-08T07:38:56.859Z,101220.92
2018-01-08T07:41:23.936Z,101224.83
2018-01-08T07:43:50.347Z,101226.09
2018-01-08T07:46:16.759Z,101221.73
2018-01-08T07:48:43.179Z,101222.60
2018-01-08T07:51:09.576Z,101227.38
2018-01-08T07:53:36.316Z,101233.03
2018-01-08T07:56:02.736Z,101240.82
2018-01-08T07:58:29.140Z,101248.61
2018-01-08T08:00:55.570Z,101236.84
2018-01-08T08:03:22.260Z,101231.98
2018-01-08T08:05:48.702Z,101223.20
2018-01-08T08:08:15.079Z,101225.30
2018-01-08T08:10:41.488Z,101217.46
2018-01-08T08:13:08.025Z,101213.05
2018-01-08T08:15:34.585Z,101211.22
2018-01-08T08:18:01.789Z,101216.41
2018-01-08T08:20:28.200Z,101217.28
2018-01-08T08:22:54.655Z,101221.16
2018-01-08T08:25:21.268Z,101215.42
2018-01-08T08:27:47.810Z,101217.97
2018-01-08T08:30:14.625Z,101223.15
2018-01-08T08:32:41.457Z,101230.95
2018-01-08T08:35:08.177Z,101241.86
2018-01-08T08:37:34.636Z,101244.39
2018-01-08T08:40:01.061Z,101235.17
2018-01-08T08:42:27.471Z,101233.82
2018-01-08T08:44:54.000Z,101240.74
2018-01-08T08:47:20.419Z,101243.77
2018-01-08T08:49:46.786Z,101238.98
2018-01-08T08:52:13.271Z,101237.16
2018-01-08T08:54:39.833Z,101246.27
2018-01-08T08:57:06.280Z,101249.31
2018-01-08T08:59:32.752Z,101244.47
2018-01-08T09:01:59.180Z,101249.70
2018-01-08T09:04:25.694Z,101247.06
2018-01-08T09:06:52.189Z,101245.23
2018-01-08T09:09:18.627Z,101257.42
2018-01-08T09:11:45.044Z,101259.58
2018-01-08T09:14:11.488Z,101264.28
2018-01-08T09:16:38.081Z,101264.58
2018-01-08T09:19:04.486Z,101253.09
2018-01-08T09:21:30.954Z,101250.31
2018-01-08T09:23:57.562Z,101243.70
2018-01-08T09:26:23.971Z,101241.02
2018-01-08T09:28:50.379Z,101236.56
2018-01-08T09:31:16.896Z,101230.88
2018-01-08T09:33:43.346Z,101223.89
2018-01-08T09:36:09.696Z,101223.32
2018-01-08T09:38:36.135Z,101222.38
2018-01-08T09:41:02.548Z,101220.59
2018-01-08T09:43:28.960Z,101210.03
2018-01-08T09:45:55.356Z,101202.61
2018-01-08T09:48:21.850Z,101217.45
2018-01-08T09:50:48.361Z,101226.59
2018-01-08T09:53:14.808Z,101220.52
2018-01-08T09:55:41.176Z,101206.83
2018-01-08T09:58:07.639Z,101202.97
2018-01-08T10:00:34.279Z,101206.79
2018-01-08T10:03:12.923Z,101208.10
2018-01-08T10:05:57.764Z,101190.78
2018-01-08T10:08:42.600Z,101186.81
2018-01-08T10:11:27.225Z,101181.38
2018-01-08T10:14:12.145Z,101187.13
2018-01-08T10:16:56.973Z,101178.55
2018-01-08T10:19:42.843Z,101171.56
2018-01-08T10:22:09.780Z,101173.07
2018-01-08T10:24:36.208Z,101172.52
2018-01-08T10:27:02.739Z,101166.27
2018-01-08T10:29:29.284Z,101162.42
2018-01-08T10:31:55.800Z,101156.34
2018-01-08T10:34:22.260Z,101149.23
2018-01-08T10:36:48.720Z,101129.48
2018-01-08T10:39:15.174Z,101140.53
2018-01-08T10:41:47.597Z,101137.08
2018-01-08T10:44:20.079Z,101139.00
2018-01-08T10:46:52.639Z,101133.77
2018-01-08T10:49:25.012Z,101135.81
2018-01-08T10:51:51.460Z,101119.98
2018-01-08T10:54:17.942Z,101111.93
2018-01-08T10:56:44.429Z,101118.41
2018-01-08T10:59:10.915Z,101118.31
2018-01-08T11:01:43.316Z,101115.14
2018-01-08T11:04:09.834Z,101117.42
2018-01-08T11:06:36.310Z,101113.84
2018-01-08T11:09:02.791Z,101107.66
2018-01-08T11:11:29.300Z,101101.44
2018-01-08T11:13:55.768Z,101099.64
2018-01-08T11:16:22.250Z,101093.81
2018-01-08T11:18:48.772Z,101084.08
2018-01-08T11:21:15.215Z,101090.05
2018-01-08T11:23:41.697Z,101091.36
2018-01-08T11:26:08.179Z,101082.73
2018-01-08T11:28:34.691Z,101076.16
2018-01-08T11:31:01.155Z,101070.42
2018-01-08T11:33:27.619Z,101063.42
2018-01-08T11:35:54.108Z,101059.16
2018-01-08T11:38:20.580Z,101051.13
2018-01-08T11:40:47.072Z,101042.58
2018-01-08T11:43:13.560Z,101043.13
2018-01-08T11:45:40.067Z,101033.83
2018-01-08T11:48:06.604Z,101024.51
2018-01-08T11:50:33.157Z,101018.81
2018-01-08T11:52:59.610Z,101007.51
2018-01-08T11:55:26.172Z,101010.02
2018-01-08T11:57:52.695Z,101004.61
2018-01-08T12:00:19.188Z,101011.01
2018-01-08T12:02:45.807Z,101013.25
2018-01-08T12:05:12.268Z,101013.83
2018-01-08T12:07:38.763Z,101008.77
2018-01-08T12:10:05.312Z,101018.50
2018-01-08T12:12:31.830Z,101022.89
2018-01-08T12:14:58.416Z,101024.80
2018-01-08T12:17:24.972Z,101010.69
2018-01-08T12:19:51.436Z,101012.55
2018-01-08T12:22:17.889Z,101010.48
2018-01-08T12:24:44.404Z,101005.10
2018-01-08T12:27:10.960Z,101002.86
2018-01-08T12:29:37.443Z,101007.23
2018-01-08T12:32:03.939Z,101001.81
2018-01-08T12:34:30.352Z,101007.27
2018-01-08T12:36:56.759Z,101002.02
2018-01-08T12:39:23.263Z,100993.48
2018-01-08T12:41:49.712Z,100995.19
2018-01-08T12:44:16.194Z,100993.88
2018-01-08T12:46:42.685Z,100994.56
2018-01-08T12:49:09.132Z,100989.98
2018-01-08T12:51:35.563Z,100986.39
2018-01-08T12:54:02.116Z,100997.53
2018-01-08T12:56:28.588Z,101000.27
2018-01-08T12:58:54.984Z,100993.83
2018-01-08T13:01:21.512Z,100993.69
2018-01-08T13:03:48.027Z,100990.95
2018-01-08T13:06:14.620Z,100992.96
2018-01-08T13:08:41.116Z,100998.02
2018-01-08T13:11:07.629Z,101008.96
2018-01-08T13:13:34.032Z,101011.98
2018-01-08T13:16:00.448Z,101004.47
2018-01-08T13:18:26.912Z,101013.23
2018-01-08T13:20:53.302Z,101012.84
2018-01-08T13:23:19.729Z,101011.84
2018-01-08T13:25:46.292Z,101000.41
2018-01-08T13:28:12.749Z,100996.91
2018-01-08T13:30:39.260Z,100988.08
2018-01-08T13:33:05.700Z,101006.91
2018-01-08T13:35:32.166Z,101015.80
2018-01-08T13:37:58.785Z,101014.55
2018-01-08T13:40:25.288Z,101021.06
2018-01-08T13:42:51.751Z,101030.36
2018-01-08T13:45:18.291Z,101028.61
2018-01-08T13:47:44.963Z,101029.00
2018-01-08T13:50:11.513Z,101032.99
2018-01-08T13:52:38.166Z,101030.50
2018-01-08T13:55:04.641Z,101026.87
2018-01-08T13:57:31.095Z,101033.94
2018-01-08T13:59:57.644Z,101017.72
2018-01-08T14:02:24.140Z,101022.99
2018-01-08T14:04:50.657Z,101024.29
2018-01-08T14:07:17.252Z,101034.31
2018-01-08T14:09:43.872Z,101023.85
2018-01-08T14:12:10.381Z,101022.11
2018-01-08T14:14:36.911Z,101017.30
2018-01-08T14:17:03.385Z,101017.84
2018-01-08T14:19:30.014Z,101004.33
2018-01-08T14:21:56.554Z,101004.09
2018-01-08T14:24:22.964Z,101005.08
2018-01-08T14:26:49.821Z,101008.08
2018-01-08T14:29:16.388Z,101001.53
2018-01-08T14:31:42.775Z,101003.33
2018-01-08T14:34:09.236Z,101013.47
2018-01-08T14:36:35.712Z,101013.14
2018-01-08T14:39:02.376Z,101007.00
2018-01-08T14:41:28.755Z,101011.77
2018-01-08T14:43:55.320Z,101012.25
2018-01-08T14:46:21.845Z,101017.07
2018-01-08T14:48:48.317Z,101018.02
2018-01-08T14:51:14.831Z,101013.30
2018-01-08T14:53:41.232Z,101008.05
2018-01-08T14:56:07.619Z,101010.23
2018-01-08T14:58:34.060Z,101021.62
2018-01-08T15:01:00.588Z,101029.19
2018-01-08T15:03:27.042Z,101027.91
2018-01-08T15:05:53.527Z,101034.44
2018-01-08T15:08:19.960Z,101036.28
2018-01-08T15:10:46.479Z,101036.30
2018-01-08T15:13:12.979Z,101038.16
2018-01-08T15:15:39.421Z,101036.45
2018-01-08T15:18:05.900Z,101029.09
2018-01-08T15:20:32.412Z,101023.93
2018-01-08T15:22:58.961Z,101025.73
2018-01-08T15:25:25.392Z,101027.06
2018-01-08T15:27:51.896Z,101034.55
2018-01-08T15:30:18.368Z,101038.10
2018-01-08T15:32:44.803Z,101042.52
2018-01-08T15:35:11.256Z,101047.05
2018-01-08T15:37:37.688Z,101055.80
2018-01-08T15:40:04.120Z,101050.17
2018-01-08T15:42:30.531Z,101056.39
2018-01-08T15:44:56.941Z,101058.16
2018-01-08T15:47:23.295Z,101062.52
2018-01-08T15:49:49.723Z,101071.70
2018-01-08T15:52:16.221Z,101072.34
2018-01-08T15:54:42.728Z,101070.59
2018-01-08T15:57:09.156Z,101072.69
2018-01-08T15:59:35.902Z,101070.59
2018-01-08T16:02:02.309Z,101075.84
2018-01-08T16:04:28.732Z,101083.80
2018-01-08T16:06:55.158Z,101088.19
2018-01-08T16:09:21.579Z,101090.86
2018-01-08T16:11:48.053Z,101093.52
2018-01-08T16:14:14.432Z,101085.22
2018-01-08T16:16:40.859Z,101086.58
2018-01-08T16:19:07.293Z,101096.67
2018-01-08T16:21:33.696Z,101090.13
2018-01-08T16:24:00.114Z,101092.36
2018-01-08T16:26:27.033Z,101091.13
2018-01-08T16:28:53.576Z,101090.27
2018-01-08T16:31:20.009Z,101086.43
2018-01-08T16:33:46.467Z,101090.84
2018-01-08T16:36:12.887Z,101084.34
2018-01-08T16:38:39.279Z,101088.36
2018-01-08T16:41:05.779Z,101093.20
2018-01-08T16:43:32.229Z,101092.42
2018-01-08T16:45:58.673Z,101096.49
2018-01-08T16:48:25.144Z,101094.75
2018-01-08T16:50:51.509Z,101101.81
2018-01-08T16:53:17.848Z,101099.72
2018-01-08T16:55:45.126Z,101109.02
2018-01-08T16:58:11.579Z,101109.55
2018-01-08T17:00:37.997Z,101108.67
2018-01-08T17:03:04.476Z,101106.58
2018-01-08T17:05:31.005Z,101108.41
2018-01-08T17:07:57.340Z,101110.59
2018-01-08T17:10:23.800Z,101111.50
2018-01-08T17:12:50.209Z,101114.16
2018-01-08T17:15:16.728Z,101118.48
2018-01-08T17:17:43.222Z,101109.83
2018-01-08T17:20:09.661Z,101102.72
2018-01-08T17:22:36.056Z,101104.42
2018-01-08T17:25:02.465Z,101100.94
2018-01-08T17:27:28.863Z,101097.01
2018-01-08T17:29:55.256Z,101090.65
2018-01-08T17:32:21.732Z,101087.16
2018-01-08T17:34:48.147Z,101083.73
2018-01-08T17:37:14.556Z,101091.48
2018-01-08T17:39:40.994Z,101090.36
2018-01-08T17:42:07.392Z,101096.20
2018-01-08T17:44:33.789Z,101102.59
2018-01-08T17:47:00.400Z,101104.83
2018-01-08T17:49:26.776Z,101111.72
2018-01-08T17:51:53.139Z,101112.98
2018-01-08T17:54:19.580Z,101111.70
2018-01-08T17:56:45.939Z,101109.53
2018-01-08T17:59:12.296Z,101110.80
2018-01-08T18:01:38.748Z,101113.42
2018-01-08T18:04:05.257Z,101111.77
2018-01-08T18:06:31.690Z,101107.27
2018-01-08T18:08:58.140Z,101098.14
2018-01-08T18:11:24.526Z,101092.03
2018-01-08T18:13:50.930Z,101085.44
2018-01-08T18:16:17.332Z,101080.36
2018-01-08T18:18:43.676Z,101082.16
2018-01-08T18:21:10.068Z,101080.91
2018-01-08T18:23:36.529Z,101077.45
2018-01-08T18:26:02.892Z,101076.20
2018-01-08T18:28:36.296Z,101066.64
2018-01-08T18:31:02.712Z,101062.75
2018-01-08T18:33:29.092Z,101071.03
2018-01-08T18:35:55.576Z,101069.66
2018-01-08T18:38:21.953Z,101070.05
2018-01-08T18:40:48.384Z,101061.70
2018-01-08T18:43:14.800Z,101065.13
2018-01-08T18:45:41.232Z,101068.64
2018-01-08T18:48:07.636Z,101071.55
2018-01-08T18:50:34.059Z,101074.63
2018-01-08T18:53:00.539Z,101079.80
2018-01-08T18:55:26.932Z,101077.15
2018-01-08T18:57:53.375Z,101072.76
2018-01-08T19:00:19.864Z,101076.25
2018-01-08T19:02:46.292Z,101074.19
2018-01-08T19:05:12.680Z,101070.20
2018-01-08T19:07:39.095Z,101058.13
2018-01-08T19:10:06.508Z,101049.00
2018-01-08T19:12:32.971Z,101052.42
2018-01-08T19:14:59.357Z,101056.84
2018-01-08T19:17:25.756Z,101055.16
2018-01-08T19:19:52.236Z,101056.94
2018-01-08T19:22:18.774Z,101067.40
2018-01-08T19:24:45.199Z,101066.44
2018-01-08T19:27:11.684Z,101069.02
2018-01-08T19:29:38.151Z,101070.36
2018-01-08T19:32:04.552Z,101073.47
2018-01-08T19:34:30.991Z,101079.57
2018-01-08T19:36:57.400Z,101078.44
2018-01-08T19:39:23.853Z,101066.06
2018-01-08T19:41:50.266Z,101060.92
2018-01-08T19:44:16.675Z,101074.43
2018-01-08T19:46:43.156Z,101075.77
2018-01-08T19:49:09.566Z,101075.50
2018-01-08T19:51:35.935Z,101064.55
2018-01-08T19:54:02.348Z,101062.75
2018-01-08T19:56:28.735Z,101055.05
2018-01-08T19:58:55.152Z,101050.26
2018-01-08T20:01:21.559Z,101043.58
2018-01-08T20:03:48.041Z,101046.05
2018-01-08T20:06:14.496Z,101049.01
2018-01-08T20:08:40.887Z,101043.78
2018-01-08T20:11:07.287Z,101043.34
2018-01-08T20:13:33.751Z,101040.67
2018-01-08T20:16:00.156Z,101037.97
2018-01-08T20:18:26.580Z,101036.14
2018-01-08T20:20:53.048Z,101031.44
2018-01-08T20:23:19.436Z,101028.80
2018-01-08T20:25:45.936Z,101037.13
2018-01-08T20:28:12.368Z,101045.41
2018-01-08T20:30:38.743Z,101050.80
2018-01-08T20:33:05.166Z,101053.02
2018-01-08T20:35:31.547Z,101056.16
2018-01-08T20:37:58.012Z,101049.58
2018-01-08T20:40:24.517Z,101046.88
2018-01-08T20:42:50.945Z,101040.33
2018-01-08T20:45:17.327Z,101045.61
2018-01-08T20:47:43.767Z,101043.34
2018-01-08T20:50:10.191Z,101040.27
2018-01-08T20:52:36.644Z,101043.64
2018-01-08T20:55:03.123Z,101044.10
2018-01-08T20:57:29.525Z,101041.00
2018-01-08T20:59:55.887Z,101036.58
2018-01-08T21:02:22.324Z,101034.43
2018-01-08T21:04:48.700Z,101030.95
2018-01-08T21:07:15.052Z,101038.17
2018-01-08T21:09:41.455Z,101039.80
2018-01-08T21:12:07.843Z,101042.45
2018-01-08T21:14:34.292Z,101041.14
2018-01-08T21:17:00.724Z,101034.95
2018-01-08T21:19:27.144Z,101036.31
2018-01-08T21:21:53.520Z,101033.30
2018-01-08T21:24:19.930Z,101043.02
2018-01-08T21:26:46.332Z,101040.02
2018-01-08T21:29:12.700Z,101037.39
2018-01-08T21:31:39.168Z,101028.23
2018-01-08T21:34:05.531Z,101017.41
2018-01-08T21:36:31.927Z,101020.10
2018-01-08T21:38:58.348Z,101021.48
2018-01-08T21:41:24.699Z,101011.55
2018-01-08T21:43:51.059Z,101008.14
2018-01-08T21:46:17.496Z,101011.28
2018-01-08T21:48:43.872Z,101020.04
2018-01-08T21:51:10.309Z,101015.70
2018-01-08T21:53:36.639Z,101014.84
2018-01-08T21:56:02.987Z,101007.94
2018-01-08T21:58:29.364Z,101013.28
2018-01-08T22:00:55.763Z,101020.21
2018-01-08T22:03:22.195Z,101029.02
2018-01-08T22:05:48.564Z,101027.67
2018-01-08T22:08:15.059Z,101025.05
2018-01-08T22:10:41.468Z,101010.70
2018-01-08T22:13:08.027Z,101008.51
2018-01-08T22:15:34.508Z,101013.82
2018-01-08T22:18:01.014Z,101007.25
2018-01-08T22:20:27.355Z,100995.05
2018-01-08T22:22:54.583Z,100992.07
2018-01-08T22:25:20.990Z,100989.00
2018-01-08T22:27:47.352Z,100986.52
2018-01-08T22:30:13.782Z,100989.56
2018-01-08T22:32:40.187Z,100985.52
2018-01-08T22:35:06.616Z,100980.88
2018-01-08T22:37:33.116Z,100978.34
2018-01-08T22:39:59.458Z,100983.47
2018-01-08T22:42:25.892Z,100979.61
2018-01-08T22:44:52.295Z,100980.94
2018-01-08T22:47:18.668Z,100981.34
2018-01-08T22:49:45.016Z,100984.42
2018-01-08T22:52:11.467Z,100976.20
2018-01-08T22:54:37.860Z,100983.07
2018-01-08T22:57:04.271Z,100987.02
2018-01-08T22:59:30.672Z,100990.19
2018-01-08T23:01:57.056Z,100994.90
2018-01-08T23:04:23.487Z,100993.62
2018-01-08T23:06:49.879Z,100993.30
2018-01-08T23:09:16.291Z,101001.14
2018-01-08T23:11:42.695Z,100990.70
2018-01-08T23:14:09.092Z,100996.81
2018-01-08T23:16:35.440Z,100991.56
2018-01-08T23:19:01.880Z,100986.81
2018-01-08T23:21:28.271Z,100985.96
2018-01-08T23:23:54.695Z,100990.80
2018-01-08T23:26:21.099Z,100988.60
2018-01-08T23:28:47.508Z,100994.69
2018-01-08T23:31:13.868Z,100987.81
2018-01-08T23:33:40.227Z,100992.58
2018-01-08T23:36:06.664Z,100992.59
2018-01-08T23:38:33.066Z,100999.45
2018-01-08T23:40:59.447Z,100999.91
2018-01-08T23:43:25.847Z,100994.67
2018-01-08T23:45:52.224Z,101003.03
2018-01-08T23:48:18.644Z,101002.16
2018-01-08T23:50:45.051Z,101010.02
2018-01-08T23:53:11.415Z,101009.92
2018-01-08T23:55:37.894Z,101014.67
2018-01-08T23:58:04.255Z,101018.16
